Time;durP1;ratioP1;P1;durP2;ratioP2;P2;SDS_P1;SDS_P2;PMS_P1;PMS_P2;Temp;Humidity;BMP_temperature;BMP_pressure;BME280_temperature;BME280_humidity;BME280_pressure;Samples;Min_cycle;Max_cycle;Signal;HPM_P1;HPM_P2
2022/08/27 00:01:45;;;;;;;0.60;0.60;;;20.40;84.10;;;20.85;68.49;94606.09;5024962;28;20230;-80
2022/08/27 00:04:12;;;;;;;0.40;0.40;;;20.40;84.10;;;20.84;68.31;94606.38;5012479;28;20196;-79
2022/08/27 00:06:39;;;;;;;0.30;0.30;;;20.40;84.20;;;20.77;68.28;94591.41;5002299;28;20698;-80
2022/08/27 00:09:07;;;;;;;0.40;0.40;;;20.40;84.20;;;20.82;68.06;94609.28;5010912;28;20677;-79
2022/08/27 00:11:35;;;;;;;0.43;0.43;;;20.40;84.40;;;20.84;68.18;94603.72;4981612;28;20520;-79
2022/08/27 00:14:03;;;;;;;0.40;0.40;;;20.40;84.60;;;20.86;68.51;94605.03;5021450;28;20218;-80
2022/08/27 00:16:31;;;;;;;0.40;0.40;;;20.30;84.70;;;20.89;68.11;94601.03;4993915;28;20228;-79
2022/08/27 00:18:58;;;;;;;0.40;0.40;;;20.40;84.90;;;20.85;68.49;94592.78;5023748;28;20201;-79
2022/08/27 00:21:25;;;;;;;0.40;0.40;;;20.40;84.80;;;20.84;68.65;94596.50;5004905;28;20220;-80
2022/08/27 00:23:54;;;;;;;0.40;0.40;;;20.40;84.70;;;20.84;68.10;94593.84;4999169;28;20667;-80
2022/08/27 00:26:21;;;;;;;0.50;0.50;;;20.40;84.70;;;20.83;68.60;94592.22;5013259;28;20674;-80
2022/08/27 00:28:49;;;;;;;0.40;0.40;;;20.40;84.80;;;20.83;68.57;94594.91;5016256;28;20583;-79
2022/08/27 00:31:16;;;;;;;0.40;0.40;;;20.40;84.90;;;20.87;68.26;94595.97;5013762;28;20232;-79
2022/08/27 00:33:44;;;;;;;0.50;0.50;;;20.40;85.00;;;20.87;68.36;94584.50;5013040;28;20194;-79
2022/08/27 00:36:12;;;;;;;0.50;0.50;;;20.40;85.00;;;20.85;68.47;94584.78;5027279;28;20247;-79
2022/08/27 00:38:40;;;;;;;0.45;0.45;;;20.40;85.00;;;20.82;68.64;94585.28;5018883;28;20207;-78
2022/08/27 00:41:10;;;;;;;0.40;0.40;;;20.40;84.80;;;20.81;68.88;94582.91;5001452;28;20244;-80
2022/08/27 00:43:56;;;;;;;0.40;0.40;;;20.40;84.70;;;20.78;68.52;94574.34;5029016;28;20200;-80
2022/08/27 00:46:31;;;;;;;0.40;0.40;;;20.40;84.50;;;20.81;68.52;94573.03;5012236;28;20261;-80
2022/08/27 00:49:08;;;;;;;0.40;0.40;;;20.40;84.70;;;20.80;68.95;94576.78;5015502;28;20280;-80
2022/08/27 00:51:38;;;;;;;0.40;0.40;;;20.40;84.60;;;20.77;68.59;94569.31;4988932;28;20646;-80
2022/08/27 00:54:08;;;;;;;0.40;0.40;;;20.40;84.70;;;20.81;68.36;94573.03;4996660;28;20279;-80
2022/08/27 00:56:43;;;;;;;0.40;0.40;;;20.30;84.90;;;20.83;68.36;94568.25;5002584;28;20651;-80
2022/08/27 00:59:22;;;;;;;0.40;0.40;;;20.40;85.00;;;20.83;68.67;94573.56;5024362;28;20217;-79
2022/08/27 01:04:37;;;;;;;0.40;0.40;;;20.30;85.50;;;20.84;68.92;94583.16;5020776;28;20676;-80
2022/08/27 01:07:05;;;;;;;0.40;0.40;;;20.30;85.50;;;20.87;68.59;94584.50;4998563;28;20235;-78
2022/08/27 01:09:33;;;;;;;0.40;0.40;;;20.30;85.60;;;20.88;68.31;94586.13;5012480;28;20463;-80
2022/08/27 01:12:00;;;;;;;0.40;0.40;;;20.30;85.70;;;20.88;68.64;94589.56;5022304;28;20221;-80
2022/08/27 01:14:28;;;;;;;0.32;0.32;;;20.30;85.70;;;20.88;68.41;94588.78;5015890;28;20295;-80
2022/08/27 01:16:58;;;;;;;0.40;0.40;;;20.30;85.80;;;20.89;68.83;94591.16;5021146;28;20255;-79
2022/08/27 01:19:34;;;;;;;0.40;0.40;;;20.30;85.80;;;20.87;68.48;94589.84;5010929;28;20236;-80
2022/08/27 01:22:31;;;;;;;0.40;0.40;;;20.30;85.50;;;20.87;68.82;94590.66;5031544;28;20254;-80
2022/08/27 01:25:12;;;;;;;0.40;0.40;;;20.30;85.60;;;20.85;68.51;94587.44;5031905;28;20202;-80
2022/08/27 01:27:41;;;;;;;0.40;0.40;;;20.40;85.80;;;20.87;69.10;94589.84;5014819;28;20224;-80
2022/08/27 01:30:12;;;;;;;0.40;0.40;;;20.30;85.90;;;20.88;68.85;94600.22;5028255;28;20220;-80
2022/08/27 01:32:41;;;;;;;0.30;0.30;;;20.30;85.90;;;20.90;69.07;94602.66;4993235;28;20302;-79
2022/08/27 01:35:13;;;;;;;0.40;0.40;;;20.30;86.10;;;20.91;69.15;94596.22;4998368;28;20232;-80
2022/08/27 01:37:43;;;;;;;0.40;0.40;;;20.40;86.00;;;20.90;68.89;94597.31;5029999;28;20278;-80
2022/08/27 01:40:10;;;;;;;0.40;0.40;;;20.40;86.20;;;20.91;69.44;94591.72;4997633;28;20731;-80
2022/08/27 01:42:46;;;;;;;0.38;0.38;;;20.40;86.20;;;20.93;69.41;94591.44;5026224;28;20255;-80
2022/08/27 01:45:20;;;;;;;0.40;0.40;;;20.40;86.10;;;20.94;69.15;94598.38;5032504;28;20204;-79
2022/08/27 01:47:47;;;;;;;0.40;0.40;;;20.40;86.20;;;20.92;69.22;94598.66;5028531;28;20295;-80
2022/08/27 01:50:20;;;;;;;0.40;0.40;;;20.40;86.30;;;20.89;69.31;94601.03;5017617;28;20741;-80
2022/08/27 01:52:48;;;;;;;0.40;0.40;;;20.40;85.80;;;20.89;68.86;94595.72;4987427;28;20248;-79
2022/08/27 01:55:20;;;;;;;0.40;0.40;;;20.40;85.80;;;20.88;68.78;94586.91;5011777;28;20596;-78
2022/08/27 01:57:48;;;;;;;0.40;0.40;;;20.40;86.50;;;20.88;68.68;94591.44;5019147;28;20242;-79
2022/08/27 02:00:21;;;;;;;0.50;0.50;;;20.40;85.80;;;20.85;69.07;94575.97;5031472;28;20552;-78
2022/08/27 02:02:49;;;;;;;0.40;0.40;;;20.40;85.70;;;20.87;69.20;94584.50;5014303;28;20245;-80
2022/08/27 02:05:17;;;;;;;0.50;0.50;;;20.40;85.90;;;20.90;69.07;94581.31;5022740;28;20197;-79
2022/08/27 02:07:46;;;;;;;0.40;0.40;;;20.40;86.10;;;20.91;69.16;94567.72;5014516;28;20230;-80
2022/08/27 02:10:20;;;;;;;0.40;0.40;;;20.40;86.20;;;20.91;69.29;94570.38;5004647;28;20209;-79
2022/08/27 02:12:48;;;;;;;0.30;0.30;;;20.40;86.20;;;20.94;69.23;94567.19;5029309;28;20204;-79
2022/08/27 02:15:16;;;;;;;0.40;0.40;;;20.40;86.50;;;20.94;69.68;94564.50;5031065;28;20222;-79
2022/08/27 02:17:43;;;;;;;0.40;0.40;;;20.40;86.60;;;20.95;69.33;94562.66;5009736;28;20225;-79
2022/08/27 02:20:12;;;;;;;0.40;0.40;;;20.50;86.60;;;20.97;69.73;94565.88;4996258;28;20205;-80
2022/08/27 02:22:40;;;;;;;0.45;0.45;;;20.50;86.40;;;20.98;69.38;94562.13;5008951;28;20228;-79
2022/08/27 02:25:12;;;;;;;0.38;0.38;;;20.50;86.30;;;21.01;69.32;94566.94;5022243;28;20201;-79
2022/08/27 02:27:41;;;;;;;0.40;0.40;;;20.50;86.20;;;21.03;69.28;94572.81;5007650;28;20740;-79
2022/08/27 02:30:12;;;;;;;0.40;0.40;;;20.50;86.30;;;21.06;69.66;94574.91;5023851;28;20194;-80
2022/08/27 02:32:39;;;;;;;0.30;0.30;;;20.60;86.60;;;21.10;69.83;94569.84;5011513;28;20597;-80
2022/08/27 02:35:08;;;;;;;0.40;0.40;;;20.60;86.90;;;21.09;69.58;94566.41;5004322;28;20575;-79
2022/08/27 02:37:36;;;;;;;0.40;0.40;;;20.60;87.00;;;21.16;69.84;94562.66;5020118;28;20230;-79
2022/08/27 02:40:07;;;;;;;0.40;0.40;;;20.60;87.00;;;21.19;69.75;94562.13;4995761;28;20194;-79
2022/08/27 02:42:34;;;;;;;0.50;0.50;;;20.60;87.00;;;21.15;69.64;94545.84;5016194;28;20228;-79
2022/08/27 02:45:03;;;;;;;0.40;0.40;;;20.60;87.10;;;21.20;69.55;94553.88;5009843;28;20567;-80
2022/08/27 02:47:31;;;;;;;0.50;0.50;;;20.60;87.80;;;21.20;69.52;94545.06;5002867;28;20224;-79
2022/08/27 02:49:58;;;;;;;0.47;0.47;;;20.70;87.10;;;21.22;69.74;94553.59;5018734;28;20196;-79
2022/08/27 02:52:28;;;;;;;0.30;0.30;;;20.70;87.00;;;21.19;69.67;94546.13;5012000;28;20252;-80
2022/08/27 02:54:56;;;;;;;0.40;0.40;;;20.70;86.80;;;21.13;69.38;94548.00;5019437;28;20200;-78
2022/08/27 02:57:25;;;;;;;0.40;0.40;;;20.70;86.40;;;21.10;69.17;94557.34;5002451;28;20240;-79
2022/08/27 02:59:53;;;;;;;0.45;0.45;;;20.70;86.20;;;21.06;68.88;94547.47;5003152;28;20292;-80
2022/08/27 03:02:20;;;;;;;0.40;0.40;;;20.70;86.10;;;21.04;69.18;94561.03;5016794;28;20248;-80
2022/08/27 03:04:49;;;;;;;0.50;0.50;;;20.60;86.10;;;21.01;69.28;94555.47;5004750;28;20663;-79
2022/08/27 03:07:17;;;;;;;0.40;0.40;;;20.60;85.90;;;20.97;69.08;94552.53;5017196;28;20228;-80
2022/08/27 03:09:45;;;;;;;0.40;0.40;;;20.60;85.90;;;20.95;69.27;94555.44;5019657;28;20719;-80
2022/08/27 03:12:12;;;;;;;0.40;0.40;;;20.60;85.90;;;20.91;69.21;94550.91;5017439;28;20238;-76
2022/08/27 03:14:39;;;;;;;0.40;0.40;;;20.60;85.80;;;20.92;69.11;94560.50;5003925;28;20289;-77
2022/08/27 03:19:53;;;;;;;0.40;0.40;;;20.60;85.90;;;20.87;69.33;94552.50;5013810;28;20644;-78
2022/08/27 03:22:20;;;;;;;0.30;0.30;;;20.50;85.70;;;20.85;69.00;94559.97;5008712;28;20213;-77
2022/08/27 03:24:47;;;;;;;0.40;0.40;;;20.50;85.80;;;20.81;69.21;94567.69;4998162;28;20616;-79
2022/08/27 03:27:15;;;;;;;0.50;0.50;;;20.50;85.90;;;20.81;69.15;94556.25;4998454;28;20696;-80
2022/08/27 03:29:42;;;;;;;0.40;0.40;;;20.50;86.00;;;20.80;68.95;94566.13;5024187;28;20227;-80
2022/08/27 03:32:09;;;;;;;0.40;0.40;;;20.40;85.90;;;20.81;69.16;94553.59;5010889;28;20294;-80
2022/08/27 03:34:37;;;;;;;0.40;0.40;;;20.40;86.00;;;20.81;69.26;94565.03;5008343;28;20235;-78
2022/08/27 03:37:05;;;;;;;0.43;0.43;;;20.40;86.10;;;20.79;69.47;94564.50;5008095;28;20240;-80
2022/08/27 03:39:32;;;;;;;0.40;0.40;;;20.40;86.20;;;20.78;69.32;94561.03;5020704;28;20204;-80
2022/08/27 03:41:59;;;;;;;0.30;0.30;;;20.40;86.20;;;20.76;69.41;94565.84;5010302;28;20217;-79
2022/08/27 03:44:26;;;;;;;0.40;0.40;;;20.40;86.20;;;20.77;69.25;94569.31;5009848;28;20202;-79
2022/08/27 03:46:54;;;;;;;0.40;0.40;;;20.40;86.20;;;20.77;69.78;94562.09;5004677;28;20231;-80
2022/08/27 03:49:22;;;;;;;0.30;0.30;;;20.40;86.40;;;20.77;69.66;94559.44;5023759;28;20197;-79
2022/08/27 03:51:51;;;;;;;0.40;0.40;;;20.30;86.40;;;20.74;69.34;94553.84;5011218;28;20319;-79
2022/08/27 03:54:19;;;;;;;0.50;0.50;;;20.30;86.40;;;20.75;69.99;94550.91;5015933;28;20216;-80
2022/08/27 03:56:46;;;;;;;0.50;0.50;;;20.30;86.60;;;20.76;69.88;94551.69;4994548;28;20688;-80
2022/08/27 03:59:14;;;;;;;0.40;0.40;;;20.30;86.70;;;20.75;69.92;94558.91;4979828;28;20206;-79
2022/08/27 04:01:43;;;;;;;0.40;0.40;;;20.30;86.60;;;20.71;69.88;94563.13;5024001;28;20247;-80
2022/08/27 04:04:11;;;;;;;0.30;0.30;;;20.30;86.70;;;20.73;70.24;94562.91;5016591;28;20220;-81
2022/08/27 04:06:39;;;;;;;0.40;0.40;;;20.30;86.60;;;20.72;69.69;94563.97;5005663;28;20225;-81
2022/08/27 04:09:07;;;;;;;0.40;0.40;;;20.30;86.80;;;20.70;69.88;94556.22;5015654;28;20210;-81
2022/08/27 04:11:34;;;;;;;0.38;0.38;;;20.30;86.60;;;20.69;69.68;94557.28;5014080;28;20216;-79
2022/08/27 04:14:05;;;;;;;0.38;0.38;;;20.30;86.60;;;20.70;70.21;94553.56;5021900;28;20407;-81
2022/08/27 04:16:54;;;;;;;0.40;0.40;;;20.30;86.60;;;20.72;69.97;94553.31;5009320;28;20383;-81
2022/08/27 04:19:23;;;;;;;0.32;0.32;;;20.30;86.80;;;20.72;70.19;94561.31;4981666;28;20222;-81
2022/08/27 04:22:02;;;;;;;0.60;0.60;;;20.30;86.80;;;20.71;69.92;94557.78;5014364;28;20221;-80
2022/08/27 04:24:31;;;;;;;0.50;0.50;;;20.30;86.70;;;20.72;69.92;94559.44;5017801;28;20222;-81
2022/08/27 04:27:00;;;;;;;0.35;0.35;;;20.30;87.00;;;20.72;70.33;94554.09;5017660;28;20212;-81
2022/08/27 04:29:28;;;;;;;0.40;0.40;;;20.30;87.00;;;20.73;70.67;94566.34;5018708;28;20264;-79
2022/08/27 04:31:56;;;;;;;0.40;0.40;;;20.30;87.20;;;20.74;70.16;94565.31;5002486;28;20220;-79
2022/08/27 04:34:24;;;;;;;0.40;0.40;;;20.30;87.20;;;20.75;70.21;94564.25;4991122;28;20592;-81
2022/08/27 04:36:55;;;;;;;0.35;0.35;;;20.30;87.30;;;20.78;70.25;94563.69;5013959;28;20228;-81
2022/08/27 04:39:26;;;;;;;0.50;0.50;;;20.30;87.30;;;20.78;70.89;94566.34;4997123;28;20570;-79
2022/08/27 04:41:57;;;;;;;0.50;0.50;;;20.30;87.40;;;20.79;70.63;94559.97;5015038;28;20307;-81
2022/08/27 04:44:31;;;;;;;0.45;0.45;;;20.30;87.50;;;20.83;70.52;94546.13;4999696;28;20211;-81
2022/08/27 04:47:02;;;;;;;0.40;0.40;;;20.30;87.50;;;20.83;70.36;94548.78;5007282;28;20221;-81
2022/08/27 04:49:29;;;;;;;0.50;0.50;;;20.30;87.50;;;20.83;70.70;94551.47;5005824;28;20730;-82
2022/08/27 04:51:59;;;;;;;0.40;0.40;;;20.30;87.70;;;20.83;70.59;94559.44;5013624;28;20263;-80
2022/08/27 04:54:27;;;;;;;0.40;0.40;;;20.40;87.70;;;20.82;70.50;94555.97;4984722;28;20675;-81
2022/08/27 04:57:02;;;;;;;0.40;0.40;;;20.40;87.70;;;20.78;70.87;94555.69;5013636;28;20226;-80
2022/08/27 04:59:33;;;;;;;0.40;0.40;;;20.40;87.70;;;20.86;70.56;94564.25;5017510;28;20203;-80
2022/08/27 05:02:04;;;;;;;0.40;0.40;;;20.40;87.80;;;20.87;70.75;94561.34;5022643;28;20247;-80
2022/08/27 05:04:36;;;;;;;0.38;0.38;;;20.40;87.90;;;20.89;70.65;94567.19;5004898;28;20196;-79
2022/08/27 05:07:04;;;;;;;0.40;0.40;;;20.40;87.80;;;20.92;70.95;94565.84;5014601;28;20225;-79
2022/08/27 05:09:31;;;;;;;0.40;0.40;;;20.40;88.00;;;20.97;71.17;94589.03;5026235;28;20194;-79
2022/08/27 05:11:58;;;;;;;0.50;0.50;;;20.50;88.30;;;20.96;71.20;94574.94;5019431;28;20619;-80
2022/08/27 05:14:28;;;;;;;0.30;0.30;;;20.50;88.30;;;21.02;71.01;94581.88;5012906;28;20559;-79
2022/08/27 05:16:57;;;;;;;0.32;0.32;;;20.50;88.30;;;21.06;71.15;94582.13;5002387;28;20264;-79
2022/08/27 05:19:26;;;;;;;0.40;0.40;;;20.50;88.40;;;21.09;71.43;94587.75;5029595;28;20194;-79
2022/08/27 05:21:53;;;;;;;0.40;0.40;;;20.50;88.50;;;21.14;71.07;94588.78;5024802;28;20680;-80
2022/08/27 05:24:21;;;;;;;0.30;0.30;;;20.60;88.60;;;21.16;71.37;94595.47;5026195;28;20269;-80
2022/08/27 05:26:49;;;;;;;0.40;0.40;;;20.60;88.50;;;21.15;71.39;94579.72;5012221;28;20717;-80
2022/08/27 05:29:16;;;;;;;0.30;0.30;;;20.60;88.50;;;21.21;71.38;94589.34;5011733;28;20208;-80
2022/08/27 05:31:45;;;;;;;0.45;0.45;;;20.70;88.40;;;21.23;71.16;94589.88;5015273;28;20216;-80
2022/08/27 05:34:13;;;;;;;0.30;0.30;;;20.70;88.40;;;21.23;71.44;94592.53;5030244;28;20684;-80
2022/08/27 05:36:52;;;;;;;0.40;0.40;;;20.80;88.60;;;21.30;71.26;94595.75;5030138;28;20307;-80
2022/08/27 05:39:20;;;;;;;0.40;0.40;;;20.80;88.60;;;21.33;71.48;94599.75;5046699;28;20199;-79
2022/08/27 05:41:47;;;;;;;0.32;0.32;;;20.80;88.70;;;21.38;71.44;94595.19;5030488;28;20258;-80
2022/08/27 05:44:15;;;;;;;0.40;0.40;;;20.80;88.70;;;21.42;71.52;94596.28;5014690;28;20193;-80
2022/08/27 05:47:03;;;;;;;0.50;0.50;;;20.90;88.70;;;21.48;71.27;94596.25;5028943;28;20233;-79
2022/08/27 05:49:30;;;;;;;0.47;0.47;;;20.90;88.60;;;21.51;71.23;94593.84;5013039;28;20195;-80
2022/08/27 05:51:57;;;;;;;0.40;0.40;;;21.00;88.80;;;21.56;71.58;94596.53;5012686;28;20317;-80
2022/08/27 05:54:25;;;;;;;0.40;0.40;;;21.00;88.80;;;21.59;71.26;94597.88;5035470;28;20653;-79
2022/08/27 05:56:52;;;;;;;0.50;0.50;;;21.10;89.00;;;21.66;71.40;94589.59;5022310;28;20311;-79
2022/08/27 06:02:05;;;;;;;0.50;0.50;;;21.20;89.00;;;21.74;71.58;94591.72;5023262;28;20301;-79
2022/08/27 06:04:34;;;;;;;0.32;0.32;;;21.20;89.00;;;21.78;71.51;94595.44;5012041;28;20211;-81
2022/08/27 06:07:01;;;;;;;0.40;0.40;;;21.30;89.00;;;21.83;71.68;94608.78;5024752;28;20326;-81
2022/08/27 06:09:29;;;;;;;0.40;0.40;;;21.30;88.90;;;21.82;71.32;94606.38;5008066;28;20290;-81
2022/08/27 06:12:01;;;;;;;0.40;0.40;;;21.30;88.90;;;21.90;71.55;94617.31;5028293;28;20216;-80
2022/08/27 06:14:28;;;;;;;0.30;0.30;;;21.40;89.00;;;21.95;71.81;94611.16;5011110;28;20296;-80
2022/08/27 06:16:59;;;;;;;0.40;0.40;;;21.40;89.30;;;22.03;72.12;94615.94;5011408;28;20224;-80
2022/08/27 06:19:26;;;;;;;0.40;0.40;;;21.50;89.60;;;22.15;72.44;94617.50;5003905;28;20200;-81
2022/08/27 06:21:54;;;;;;;0.30;0.30;;;21.60;90.00;;;22.26;72.26;94618.28;5001690;28;20312;-80
2022/08/27 06:24:39;;;;;;;0.30;0.30;;;21.70;90.00;;;22.38;72.31;94616.13;5005423;28;20207;-81
2022/08/27 06:27:11;;;;;;;0.30;0.30;;;21.80;89.90;;;22.48;72.38;94612.59;4994232;28;20598;-79
2022/08/27 06:29:42;;;;;;;0.40;0.40;;;21.90;89.70;;;22.58;72.44;94609.88;5028611;28;20214;-79
2022/08/27 06:32:13;;;;;;;0.30;0.30;;;22.00;89.80;;;22.70;72.39;94620.25;5013141;28;20219;-81
2022/08/27 06:34:41;;;;;;;0.40;0.40;;;22.10;89.10;;;22.77;71.75;94620.75;5013675;28;20569;-80
2022/08/27 06:37:08;;;;;;;0.30;0.30;;;22.20;89.20;;;22.84;71.78;94609.75;5029660;28;20310;-80
2022/08/27 06:39:38;;;;;;;0.40;0.40;;;22.30;88.90;;;22.91;71.61;94610.25;5029695;28;20666;-80
2022/08/27 06:42:11;;;;;;;0.30;0.30;;;22.40;88.70;;;22.99;71.34;94609.63;5022736;28;20702;-81
2022/08/27 06:44:39;;;;;;;0.40;0.40;;;22.50;88.90;;;23.05;71.59;94610.41;5001793;28;20617;-82
2022/08/27 06:47:07;;;;;;;0.30;0.30;;;22.50;88.10;;;23.09;70.52;94613.34;5005576;28;20220;-81
2022/08/27 06:49:38;;;;;;;0.40;0.40;;;22.60;87.50;;;23.12;70.35;94610.91;4987228;28;20188;-81
2022/08/27 06:52:05;;;;;;;0.40;0.40;;;22.70;87.20;;;23.16;70.53;94619.16;5003311;28;20320;-81
2022/08/27 06:54:34;;;;;;;0.30;0.30;;;22.70;87.30;;;23.23;71.03;94617.00;5024044;28;20221;-81
2022/08/27 06:57:01;;;;;;;0.40;0.40;;;22.70;87.60;;;23.30;70.63;94620.16;5018144;28;20621;-81
2022/08/27 06:59:28;;;;;;;0.30;0.30;;;22.80;87.40;;;23.39;70.40;94616.88;5020577;28;20279;-81
2022/08/27 07:01:56;;;;;;;0.30;0.30;;;22.90;87.30;;;23.45;69.13;94621.91;5009581;28;20231;-82
2022/08/27 07:04:25;;;;;;;0.40;0.40;;;23.00;86.70;;;23.58;69.68;94622.34;5018157;28;20560;-82
2022/08/27 07:07:01;;;;;;;0.30;0.30;;;23.10;86.50;;;23.69;69.43;94621.16;5007661;28;20224;-79
2022/08/27 07:09:30;;;;;;;0.30;0.30;;;23.20;86.30;;;23.83;69.43;94626.69;5020836;28;20272;-81
2022/08/27 07:11:58;;;;;;;0.30;0.30;;;23.30;85.90;;;23.90;69.58;94624.47;4995960;28;20214;-80
2022/08/27 07:14:26;;;;;;;0.30;0.30;;;23.40;85.60;;;24.00;69.23;94628.13;5010050;28;20206;-80
2022/08/27 07:16:54;;;;;;;0.43;0.43;;;23.50;85.70;;;24.05;69.18;94630.78;4990447;28;20231;-80
2022/08/27 07:19:21;;;;;;;0.40;0.40;;;23.60;85.40;;;24.12;68.97;94633.91;5014359;28;20197;-81
2022/08/27 07:21:49;;;;;;;0.30;0.30;;;23.60;85.30;;;24.17;68.91;94628.50;5006053;28;20219;-80
2022/08/27 07:24:17;;;;;;;0.30;0.30;;;23.70;85.10;;;24.22;68.45;94631.13;5022594;28;20219;-79
2022/08/27 07:26:45;;;;;;;0.30;0.30;;;23.80;85.00;;;24.27;68.17;94627.59;5000606;28;20453;-80
2022/08/27 07:29:14;;;;;;;0.30;0.30;;;23.80;84.40;;;24.25;66.51;94633.22;5026396;28;20196;-79
2022/08/27 07:31:43;;;;;;;0.30;0.30;;;23.90;83.10;;;24.19;64.85;94642.41;5009010;28;20713;-80
2022/08/27 07:34:10;;;;;;;0.32;0.32;;;23.90;82.00;;;24.13;65.08;94627.47;5031109;28;20192;-81
2022/08/27 07:36:39;;;;;;;0.30;0.30;;;23.90;81.90;;;24.18;65.62;94629.28;5026743;28;20320;-80
2022/08/27 07:39:07;;;;;;;0.40;0.40;;;23.90;82.50;;;24.21;66.08;94631.41;5031609;28;20189;-79
2022/08/27 07:44:26;;;;;;;0.35;0.35;;;23.80;82.50;;;24.22;66.47;94622.28;5025181;28;20195;-80
2022/08/27 07:47:01;;;;;;;0.40;0.40;;;23.80;82.70;;;24.28;67.04;94615.78;5026061;28;20621;-81
2022/08/27 07:49:30;;;;;;;0.30;0.30;;;23.90;82.80;;;24.32;65.89;94621.38;5019055;28;20184;-81
2022/08/27 07:51:57;;;;;;;0.40;0.40;;;23.90;82.50;;;24.37;65.62;94616.75;5014254;28;20251;-80
2022/08/27 07:54:24;;;;;;;0.40;0.40;;;24.00;82.20;;;24.45;65.16;94623.38;5030338;28;20223;-79
2022/08/27 07:56:52;;;;;;;0.32;0.32;;;24.10;81.60;;;24.53;65.81;94621.91;4997375;28;20229;-81
2022/08/27 07:59:23;;;;;;;0.40;0.40;;;24.10;82.10;;;24.59;65.59;94624.25;5003959;28;20200;-79
2022/08/27 08:01:54;;;;;;;0.40;0.40;;;24.20;81.90;;;24.64;65.21;94618.00;4994278;28;20694;-80
2022/08/27 08:04:25;;;;;;;0.38;0.38;;;24.20;81.60;;;24.71;65.15;94626.53;5022286;28;20207;-79
2022/08/27 08:06:54;;;;;;;0.50;0.50;;;24.30;82.20;;;24.75;64.41;94635.59;5029506;28;20217;-81
2022/08/27 08:09:23;;;;;;;0.50;0.50;;;24.40;81.30;;;24.80;64.03;94634.72;5023304;28;20274;-80
2022/08/27 08:11:51;;;;;;;0.38;0.38;;;24.40;80.40;;;24.80;63.13;94628.59;5021115;28;20274;-81
2022/08/27 08:14:20;;;;;;;0.45;0.45;;;24.40;79.70;;;24.90;62.62;94644.53;4988688;28;20306;-81
2022/08/27 08:16:48;;;;;;;0.40;0.40;;;24.50;79.10;;;24.93;63.32;94639.38;5013581;28;20231;-80
2022/08/27 08:19:16;;;;;;;0.40;0.40;;;24.50;79.90;;;25.00;63.08;94630.97;4997721;28;20689;-81
2022/08/27 08:21:43;;;;;;;0.43;0.43;;;24.60;79.60;;;25.06;63.08;94631.69;4997695;28;20641;-79
2022/08/27 08:24:10;;;;;;;0.35;0.35;;;24.60;79.70;;;25.10;62.00;94636.19;5014009;28;20568;-80
2022/08/27 08:26:39;;;;;;;0.30;0.30;;;24.70;79.40;;;25.19;62.20;94641.69;5013434;28;20224;-81
2022/08/27 08:29:06;;;;;;;0.30;0.30;;;24.80;79.30;;;25.25;61.34;94645.09;5028396;28;20218;-80
2022/08/27 08:31:40;;;;;;;0.50;0.50;;;24.90;78.40;;;25.36;62.30;94646.53;5029667;28;20232;-79
2022/08/27 08:34:09;;;;;;;0.35;0.35;;;24.90;78.50;;;25.37;60.39;94642.00;5014935;28;20203;-79
2022/08/27 08:36:41;;;;;;;0.32;0.32;;;25.00;77.90;;;25.51;61.36;94642.88;5015347;28;20267;-80
2022/08/27 08:39:12;;;;;;;0.38;0.38;;;25.10;78.20;;;25.65;61.73;94636.75;5030052;28;20665;-78
2022/08/27 08:41:56;;;;;;;0.40;0.40;;;25.20;78.60;;;25.80;62.10;94635.69;5029589;28;20225;-81
2022/08/27 08:44:47;;;;;;;0.30;0.30;;;25.30;78.50;;;25.93;61.78;94634.91;5010518;28;20270;-80
2022/08/27 08:47:18;;;;;;;0.30;0.30;;;25.50;77.00;;;26.12;62.26;94639.44;5021036;28;20231;-81
2022/08/27 08:49:53;;;;;;;0.30;0.30;;;25.60;78.80;;;26.31;61.80;94642.84;5037808;28;20199;-80
2022/08/27 08:52:37;;;;;;;0.30;0.30;;;25.70;78.20;;;26.50;61.58;94636.53;5020736;28;20218;-80
2022/08/27 08:55:48;;;;;;;0.30;0.30;;;25.90;78.00;;;26.64;60.17;94645.41;5009330;28;20212;-80
2022/08/27 08:58:56;;;;;;;0.30;0.30;;;26.10;77.00;;;26.77;58.57;94640.34;5037261;28;20242;-81
2022/08/27 09:01:26;;;;;;;0.40;0.40;;;26.30;76.00;;;26.87;58.86;94640.13;5008182;28;20319;-82
2022/08/27 09:03:57;;;;;;;0.30;0.30;;;26.40;76.20;;;27.00;59.41;94642.00;5005724;28;20197;-81
2022/08/27 09:06:39;;;;;;;0.30;0.30;;;26.50;76.30;;;27.11;59.12;94647.94;5018851;28;20304;-80
2022/08/27 09:09:45;;;;;;;0.30;0.30;;;26.60;75.90;;;27.13;57.66;94648.44;5038175;28;20251;-81
2022/08/27 09:12:25;;;;;;;0.30;0.30;;;26.70;75.40;;;27.13;56.92;94653.03;4998758;28;20228;-80
2022/08/27 09:15:04;;;;;;;0.30;0.30;;;26.70;74.00;;;27.07;55.27;94656.94;5016223;28;20304;-81
2022/08/27 09:17:32;;;;;;;0.30;0.30;;;26.80;73.30;;;26.97;53.89;94649.88;5027011;28;20320;-81
2022/08/27 09:19:59;;;;;;;0.32;0.32;;;26.70;71.40;;;26.92;54.23;94648.09;5026039;28;20195;-80
2022/08/27 09:22:50;;;;;;;0.30;0.30;;;26.70;71.10;;;26.85;54.79;94645.00;5026413;28;20214;-80
2022/08/27 09:25:37;;;;;;;0.30;0.30;;;26.60;71.90;;;26.82;55.95;94653.69;5012332;28;20227;-79
2022/08/27 09:31:13;;;;;;;0.30;0.30;;;26.50;71.30;;;26.84;56.06;94646.09;5014739;28;20222;-79
2022/08/27 09:33:41;;;;;;;0.43;0.43;;;26.50;72.80;;;26.82;55.58;94645.63;5046197;28;20191;-80
2022/08/27 09:36:24;;;;;;;0.40;0.40;;;26.50;72.70;;;26.81;55.97;94644.81;5026166;28;20223;-80
2022/08/27 09:38:59;;;;;;;0.30;0.30;;;26.50;72.80;;;26.88;56.71;94649.81;5024077;28;20603;-80
2022/08/27 09:41:31;;;;;;;0.40;0.40;;;26.50;73.00;;;26.90;56.40;94644.91;5036113;28;20223;-80
2022/08/27 09:44:06;;;;;;;0.30;0.30;;;26.50;72.80;;;26.91;56.62;94643.81;5019651;28;20206;-80
2022/08/27 09:46:33;;;;;;;0.35;0.35;;;26.60;72.80;;;26.95;56.99;94647.50;5019454;28;20219;-80
2022/08/27 09:49:13;;;;;;;0.30;0.30;;;26.60;73.20;;;26.98;57.04;94640.72;5014106;28;20207;-80
2022/08/27 09:51:44;;;;;;;0.40;0.40;;;26.60;73.20;;;27.01;56.50;94640.09;5022315;28;20230;-80
2022/08/27 09:54:41;;;;;;;0.30;0.30;;;26.60;72.80;;;27.03;56.03;94654.06;5004327;28;20291;-80
2022/08/27 09:57:12;;;;;;;0.40;0.40;;;26.70;72.60;;;27.02;54.49;94640.91;4984854;28;20233;-80
2022/08/27 09:59:51;;;;;;;0.30;0.30;;;26.70;71.30;;;27.04;54.97;94646.75;4994427;28;20197;-80
2022/08/27 10:02:23;;;;;;;0.40;0.40;;;26.70;71.80;;;27.00;52.48;94642.00;5009267;28;20224;-80
2022/08/27 10:05:00;;;;;;;0.30;0.30;;;26.70;69.60;;;27.03;54.06;94645.97;5010421;28;20262;-80
2022/08/27 10:07:51;;;;;;;0.30;0.30;;;26.70;70.90;;;27.07;54.44;94640.78;5017764;28;20224;-79
2022/08/27 10:10:48;;;;;;;0.40;0.40;;;26.80;71.20;;;27.11;54.00;94642.56;5012898;28;20283;-80
2022/08/27 10:13:21;;;;;;;0.35;0.35;;;26.80;71.00;;;27.20;54.50;94631.88;5014795;28;20436;-80
2022/08/27 10:16:21;;;;;;;0.30;0.30;;;26.90;70.90;;;27.25;53.14;94637.13;5029770;28;20665;-80
2022/08/27 10:19:35;;;;;;;0.30;0.30;;;26.90;70.10;;;27.26;52.71;94621.78;5028536;28;20292;-80
2022/08/27 10:22:14;;;;;;;0.30;0.30;;;27.00;69.40;;;27.33;53.45;94630.22;5013373;28;20233;-79
2022/08/27 10:25:40;;;;;;;0.32;0.32;;;27.00;70.00;;;27.36;53.46;94628.81;5014165;28;20237;-80
2022/08/27 10:28:43;;;;;;;0.43;0.43;;;27.10;70.00;;;27.44;54.12;94639.69;5037961;28;20214;-80
2022/08/27 10:31:31;;;;;;;0.30;0.30;;;27.10;70.90;;;27.54;54.70;94641.34;5029632;28;20228;-79
2022/08/27 10:34:33;;;;;;;0.32;0.32;;;27.20;71.00;;;27.62;54.62;94637.91;5030142;28;20224;-80
2022/08/27 10:37:27;;;;;;;0.40;0.40;;;27.20;70.50;;;27.75;54.50;94633.53;5014602;28;20535;-80
2022/08/27 10:40:31;;;;;;;0.40;0.40;;;27.30;71.00;;;27.85;54.60;94623.63;5016831;28;20209;-81
2022/08/27 10:43:28;;;;;;;0.35;0.35;;;27.50;71.30;;;27.96;54.22;94619.53;4995370;28;20218;-78
2022/08/27 10:46:21;;;;;;;0.30;0.30;;;27.50;70.60;;;28.05;53.95;94615.03;5017785;28;20204;-79
2022/08/27 10:49:10;;;;;;;0.30;0.30;;;27.60;70.90;;;28.14;53.65;94616.94;5014405;28;20205;-78
2022/08/27 10:52:01;;;;;;;0.40;0.40;;;27.80;69.80;;;28.19;52.92;94601.44;5021945;28;20358;-79
2022/08/27 10:54:47;;;;;;;0.30;0.30;;;27.90;69.10;;;28.31;52.61;94618.91;5017151;28;20502;-79
2022/08/27 10:57:51;;;;;;;0.30;0.30;;;27.90;69.10;;;28.26;50.28;94612.56;5020872;28;20317;-78